Time;durP1;ratioP1;P1;durP2;ratioP2;P2;SDS_P1;SDS_P2;PMS_P1;PMS_P2;Temp;Humidity;BMP_temperature;BMP_pressure;BME280_temperature;BME280_humidity;BME280_pressure;Samples;Min_cycle;Max_cycle;Signal;HPM_P1;HPM_P2
2023/06/13 00:00:47;;;;;;;4.03;3.63;;;17.20;72.90;;;;;;5071076;28;20392;-66
2023/06/13 00:03:13;;;;;;;6.55;3.67;;;17.20;72.80;;;;;;5068914;28;20049;-65
2023/06/13 00:05:45;;;;;;;5.30;3.78;;;17.20;72.60;;;;;;5069144;28;20488;-64
2023/06/13 00:08:17;;;;;;;6.68;3.75;;;17.20;72.60;;;;;;5070301;28;20100;-65
2023/06/13 00:10:45;;;;;;;4.65;3.95;;;17.20;72.70;;;;;;5071029;28;20510;-66
2023/06/13 00:13:10;;;;;;;7.18;3.95;;;17.20;72.30;;;;;;5052143;28;20586;-65
2023/06/13 00:15:36;;;;;;;6.90;3.70;;;17.20;71.90;;;;;;5066237;28;20188;-65
2023/06/13 00:18:03;;;;;;;5.78;3.75;;;17.20;71.90;;;;;;5067702;28;20049;-65
2023/06/13 00:20:30;;;;;;;6.28;3.80;;;17.20;72.20;;;;;;5067911;28;20035;-67
2023/06/13 00:22:57;;;;;;;6.40;3.60;;;17.20;71.70;;;;;;5068472;28;20048;-67
2023/06/13 00:25:22;;;;;;;5.90;3.75;;;17.20;71.60;;;;;;5052210;28;20056;-65
2023/06/13 00:27:48;;;;;;;6.35;4.13;;;17.10;71.70;;;;;;5068462;28;20037;-64
2023/06/13 00:30:14;;;;;;;7.75;3.63;;;17.10;71.70;;;;;;5069435;28;20051;-65
2023/06/13 00:32:40;;;;;;;3.92;3.38;;;17.00;71.40;;;;;;5068328;28;20051;-68
2023/06/13 00:35:08;;;;;;;5.15;4.00;;;17.00;71.80;;;;;;5068663;28;20075;-67
2023/06/13 00:37:34;;;;;;;4.60;3.45;;;17.00;71.70;;;;;;5069054;28;20446;-66
2023/06/13 00:40:00;;;;;;;6.38;4.20;;;17.00;71.50;;;;;;5069055;28;20048;-65
2023/06/13 00:42:26;;;;;;;6.13;4.07;;;17.00;71.40;;;;;;5068416;28;20032;-68
2023/06/13 00:44:51;;;;;;;5.13;3.92;;;16.90;71.40;;;;;;5068539;28;20051;-65
2023/06/13 00:47:18;;;;;;;9.40;4.18;;;16.90;71.40;;;;;;5068418;28;20044;-65
2023/06/13 00:49:44;;;;;;;7.95;3.88;;;16.80;71.20;;;;;;5070643;28;20550;-66
2023/06/13 00:52:10;;;;;;;6.40;4.53;;;16.80;71.30;;;;;;5069849;28;20051;-65
2023/06/13 00:54:37;;;;;;;4.93;3.90;;;16.80;71.50;;;;;;5052600;28;20491;-63
2023/06/13 00:57:05;;;;;;;7.60;4.45;;;16.80;71.20;;;;;;5068074;28;20071;-66
2023/06/13 00:59:31;;;;;;;6.95;4.82;;;16.80;71.20;;;;;;5068072;28;20476;-66
2023/06/13 01:01:57;;;;;;;7.57;4.20;;;16.80;71.00;;;;;;5065575;28;20048;-66
2023/06/13 01:04:22;;;;;;;11.65;4.53;;;16.80;71.30;;;;;;5066561;28;20055;-65
2023/06/13 01:06:49;;;;;;;7.28;4.40;;;16.80;71.00;;;;;;5069688;28;20137;-64
2023/06/13 01:09:17;;;;;;;6.10;4.30;;;16.80;71.00;;;;;;5071261;28;20047;-67
2023/06/13 01:12:11;;;;;;;7.72;4.70;;;16.80;71.20;;;;;;5058485;28;20040;-66
2023/06/13 01:14:55;;;;;;;7.68;4.57;;;16.80;71.00;;;;;;5015384;28;20054;-66
2023/06/13 01:17:34;;;;;;;6.75;4.50;;;16.80;71.80;;;;;;5017581;28;20041;-67
2023/06/13 01:20:05;;;;;;;8.70;4.88;;;16.80;70.90;;;;;;5026756;28;20068;-66
2023/06/13 01:22:54;;;;;;;7.18;4.85;;;16.70;71.10;;;;;;5047024;28;20042;-67
2023/06/13 01:25:40;;;;;;;8.48;4.82;;;16.70;70.90;;;;;;5042413;28;20045;-66
2023/06/13 01:28:06;;;;;;;5.95;4.70;;;16.70;71.00;;;;;;5012864;28;20045;-66
2023/06/13 01:30:37;;;;;;;7.28;4.70;;;16.70;71.10;;;;;;5013735;28;20040;-68
2023/06/13 01:33:03;;;;;;;9.23;5.00;;;16.60;71.30;;;;;;5042422;28;20602;-65
2023/06/13 01:35:31;;;;;;;7.82;5.45;;;16.60;71.50;;;;;;5045116;28;20053;-67
2023/06/13 01:37:57;;;;;;;8.70;4.88;;;16.50;71.40;;;;;;5014732;28;20077;-65
2023/06/13 01:40:22;;;;;;;7.05;5.10;;;16.50;71.70;;;;;;5013967;28;20111;-64
2023/06/13 01:42:48;;;;;;;8.82;5.10;;;16.50;71.80;;;;;;5014592;28;20029;-65
2023/06/13 01:45:14;;;;;;;6.03;4.78;;;16.50;71.80;;;;;;5013330;28;20085;-64
2023/06/13 01:47:50;;;;;;;6.25;5.35;;;16.40;72.00;;;;;;5014427;28;20048;-65
2023/06/13 01:50:27;;;;;;;6.65;5.38;;;16.40;72.10;;;;;;5044312;28;20112;-65
2023/06/13 01:52:58;;;;;;;6.80;5.20;;;16.40;71.80;;;;;;5071012;28;20103;-65
2023/06/13 01:55:42;;;;;;;8.10;5.45;;;16.40;71.80;;;;;;5071292;28;20039;-67
2023/06/13 01:58:16;;;;;;;7.90;5.03;;;16.40;71.90;;;;;;5071056;28;20041;-65
2023/06/13 02:00:42;;;;;;;6.35;5.05;;;16.40;71.60;;;;;;5103835;28;20044;-65
2023/06/13 02:03:10;;;;;;;11.73;5.72;;;16.40;71.40;;;;;;5071380;28;20056;-67
2023/06/13 02:05:36;;;;;;;9.63;6.10;;;16.40;71.20;;;;;;5068476;28;20041;-66
2023/06/13 02:08:02;;;;;;;9.60;5.40;;;16.40;70.90;;;;;;5070143;28;20093;-65
2023/06/13 02:10:28;;;;;;;7.38;5.18;;;16.40;71.10;;;;;;5068961;28;20414;-66
2023/06/13 02:12:53;;;;;;;11.70;5.57;;;16.50;71.00;;;;;;5070640;28;20048;-65
2023/06/13 02:15:19;;;;;;;12.02;6.07;;;16.50;70.80;;;;;;5072602;28;20081;-64
2023/06/13 02:17:45;;;;;;;9.52;5.72;;;16.50;70.40;;;;;;5072316;28;20039;-65
2023/06/13 02:20:12;;;;;;;6.03;4.75;;;16.60;70.30;;;;;;5070305;28;20488;-66
2023/06/13 02:22:37;;;;;;;7.45;5.10;;;16.60;70.70;;;;;;5070620;28;20105;-64
2023/06/13 02:25:04;;;;;;;7.25;5.22;;;16.50;71.00;;;;;;5070660;28;20044;-66
2023/06/13 02:27:30;;;;;;;7.03;5.53;;;16.50;71.30;;;;;;5070592;28;20399;-66
2023/06/13 02:29:56;;;;;;;7.18;5.53;;;16.40;71.30;;;;;;5071114;28;20048;-66
2023/06/13 02:32:23;;;;;;;13.70;6.97;;;16.40;71.30;;;;;;5071872;28;20469;-65
2023/06/13 02:34:49;;;;;;;10.18;5.53;;;16.40;71.40;;;;;;5070499;28;20075;-65
2023/06/13 02:37:15;;;;;;;7.80;5.47;;;16.40;71.30;;;;;;5072333;28;20048;-66
2023/06/13 02:39:40;;;;;;;7.35;5.15;;;16.30;71.40;;;;;;5070810;28;20066;-69
2023/06/13 02:42:06;;;;;;;10.48;5.63;;;16.30;71.60;;;;;;5070524;28;20388;-67
2023/06/13 02:44:32;;;;;;;11.82;5.65;;;16.30;71.90;;;;;;5071701;28;20038;-66
2023/06/13 02:46:58;;;;;;;9.32;5.78;;;16.30;72.10;;;;;;5070583;28;20051;-65
2023/06/13 02:49:23;;;;;;;7.88;5.70;;;16.20;72.30;;;;;;5054291;28;20048;-65
2023/06/13 02:51:49;;;;;;;7.57;5.72;;;16.10;72.70;;;;;;5053547;28;20050;-67
2023/06/13 02:54:15;;;;;;;6.18;5.18;;;16.00;72.90;;;;;;5070881;28;20062;-67
2023/06/13 02:56:40;;;;;;;8.98;5.20;;;16.00;73.20;;;;;;5070663;28;20049;-68
2023/06/13 02:59:06;;;;;;;7.97;5.70;;;15.90;73.00;;;;;;5071441;28;20040;-65
2023/06/13 03:01:32;;;;;;;9.15;5.63;;;15.90;73.10;;;;;;5070295;28;20115;-66
2023/06/13 03:03:57;;;;;;;7.22;5.45;;;15.90;73.30;;;;;;5069994;28;20490;-66
2023/06/13 03:06:24;;;;;;;7.18;5.75;;;15.90;73.80;;;;;;5072392;28;20046;-67
2023/06/13 03:08:52;;;;;;;9.38;5.97;;;15.80;73.70;;;;;;5070816;28;20131;-69
2023/06/13 03:11:18;;;;;;;8.32;6.22;;;15.80;73.90;;;;;;5069271;28;20042;-65
2023/06/13 03:13:45;;;;;;;10.35;6.10;;;15.80;74.00;;;;;;5069578;28;20102;-67
2023/06/13 03:16:11;;;;;;;10.60;5.82;;;15.70;74.20;;;;;;5069798;28;20049;-67
2023/06/13 03:18:37;;;;;;;6.25;5.32;;;15.70;74.10;;;;;;5068456;28;20036;-66
2023/06/13 03:21:03;;;;;;;6.63;5.78;;;15.70;74.10;;;;;;5071281;28;20040;-67
2023/06/13 03:23:29;;;;;;;7.80;5.60;;;15.70;74.20;;;;;;5069328;28;20032;-67
2023/06/13 03:25:55;;;;;;;8.15;5.68;;;15.70;74.50;;;;;;5069282;28;20056;-66
2023/06/13 03:28:21;;;;;;;11.35;6.18;;;15.70;74.70;;;;;;5052945;28;20063;-69
2023/06/13 03:30:46;;;;;;;6.72;5.15;;;15.70;75.20;;;;;;5069158;28;20040;-67
2023/06/13 03:33:12;;;;;;;10.48;5.65;;;15.60;74.80;;;;;;5068930;28;20036;-66
2023/06/13 03:35:38;;;;;;;8.38;5.75;;;15.60;74.80;;;;;;5071535;28;20044;-65
2023/06/13 03:38:04;;;;;;;9.05;5.50;;;15.60;75.10;;;;;;5053148;28;20402;-66
2023/06/13 03:40:29;;;;;;;6.82;5.82;;;15.60;75.20;;;;;;5070076;28;20044;-67
2023/06/13 03:42:57;;;;;;;7.30;5.50;;;15.60;75.50;;;;;;5069369;28;20115;-70
2023/06/13 03:45:24;;;;;;;8.38;5.22;;;15.50;75.80;;;;;;5069742;28;20037;-66
2023/06/13 03:47:50;;;;;;;9.50;5.55;;;15.50;75.70;;;;;;5054094;28;20047;-67
2023/06/13 03:50:16;;;;;;;8.98;5.60;;;15.50;75.90;;;;;;5070162;28;20037;-68
2023/06/13 03:52:42;;;;;;;9.88;6.22;;;15.50;76.20;;;;;;5068799;28;20055;-65
2023/06/13 03:55:08;;;;;;;8.77;5.43;;;15.50;76.40;;;;;;5066087;28;20051;-65
2023/06/13 03:57:33;;;;;;;8.30;5.35;;;15.50;76.40;;;;;;5069555;28;20094;-67
2023/06/13 03:59:59;;;;;;;9.93;6.00;;;15.50;76.50;;;;;;5069603;28;20114;-67
2023/06/13 04:02:25;;;;;;;6.25;5.10;;;15.50;76.60;;;;;;5068556;28;21002;-65
2023/06/13 04:04:52;;;;;;;8.35;5.00;;;15.50;76.60;;;;;;5068375;28;20083;-67
2023/06/13 04:07:21;;;;;;;8.63;5.05;;;15.50;77.00;;;;;;5068935;28;20047;-66
2023/06/13 04:09:47;;;;;;;9.80;5.57;;;15.50;77.30;;;;;;5068630;28;20696;-67
2023/06/13 04:12:13;;;;;;;8.07;5.28;;;15.50;77.40;;;;;;5068794;28;20095;-68
2023/06/13 04:14:39;;;;;;;7.20;5.05;;;15.60;77.50;;;;;;5054089;28;20052;-65
2023/06/13 04:17:06;;;;;;;6.97;4.93;;;15.60;77.80;;;;;;5052661;28;20048;-67
2023/06/13 04:19:32;;;;;;;6.22;5.40;;;15.60;78.00;;;;;;5052578;28;20085;-67
2023/06/13 04:21:59;;;;;;;5.38;4.70;;;15.60;78.30;;;;;;5069499;28;20036;-67
2023/06/13 04:24:25;;;;;;;9.75;5.18;;;15.60;78.50;;;;;;5067471;28;20051;-67
2023/06/13 04:26:50;;;;;;;6.45;5.15;;;15.70;78.70;;;;;;5052293;28;20068;-64
2023/06/13 04:29:18;;;;;;;6.38;4.97;;;15.70;78.80;;;;;;5068480;28;20051;-65
2023/06/13 04:31:45;;;;;;;7.20;5.10;;;15.70;78.90;;;;;;5067682;28;20075;-63
2023/06/13 04:34:11;;;;;;;5.82;5.22;;;15.80;79.00;;;;;;5068498;28;20036;-65
2023/06/13 04:36:38;;;;;;;6.75;4.88;;;15.80;79.00;;;;;;5070535;28;20049;-63
2023/06/13 04:39:06;;;;;;;5.72;5.00;;;15.80;79.10;;;;;;5052076;28;20033;-65
2023/06/13 04:41:37;;;;;;;9.15;5.57;;;15.90;79.10;;;;;;5067583;28;20093;-65
2023/06/13 04:44:09;;;;;;;7.15;4.60;;;16.00;78.80;;;;;;5068852;28;20052;-64
2023/06/13 04:46:36;;;;;;;6.88;4.80;;;16.00;78.10;;;;;;5068232;28;20405;-64
2023/06/13 04:49:04;;;;;;;8.60;5.00;;;16.10;78.20;;;;;;5067244;28;20043;-64
2023/06/13 04:51:32;;;;;;;11.35;4.88;;;16.20;78.40;;;;;;5064721;28;20384;-66
2023/06/13 04:53:58;;;;;;;8.68;5.07;;;16.30;77.80;;;;;;5069686;28;20049;-65
2023/06/13 04:56:25;;;;;;;7.00;4.40;;;16.40;77.80;;;;;;5069041;28;20092;-65
2023/06/13 04:58:52;;;;;;;8.32;5.30;;;16.50;77.10;;;;;;5067367;28;20071;-65
2023/06/13 05:01:19;;;;;;;6.40;4.70;;;16.60;76.60;;;;;;5065529;28;20116;-64
2023/06/13 05:03:46;;;;;;;9.15;4.65;;;16.70;76.70;;;;;;5068876;28;20103;-63
2023/06/13 05:06:15;;;;;;;7.60;4.40;;;16.80;76.10;;;;;;5067359;28;20048;-66
2023/06/13 05:08:41;;;;;;;7.03;4.60;;;16.90;75.50;;;;;;5065880;28;20524;-67
2023/06/13 05:11:06;;;;;;;7.55;4.45;;;17.00;75.70;;;;;;5070278;28;20048;-66
2023/06/13 05:13:32;;;;;;;5.20;4.35;;;17.10;75.20;;;;;;5067378;28;20032;-67
2023/06/13 05:15:58;;;;;;;7.35;4.70;;;17.20;74.80;;;;;;5068204;28;20065;-68
2023/06/13 05:18:29;;;;;;;5.13;4.15;;;17.30;74.40;;;;;;5070376;28;20036;-66
2023/06/13 05:20:58;;;;;;;7.63;4.25;;;17.40;74.30;;;;;;5068812;28;20058;-66
2023/06/13 05:23:25;;;;;;;7.28;4.22;;;17.50;73.90;;;;;;5069523;28;20033;-66
2023/06/13 05:25:51;;;;;;;5.90;4.20;;;17.60;73.60;;;;;;5067929;28;20044;-67
2023/06/13 05:28:18;;;;;;;7.20;4.18;;;17.70;73.20;;;;;;5069192;28;20111;-65
2023/06/13 05:30:44;;;;;;;4.85;4.43;;;17.80;72.70;;;;;;5051402;28;20039;-68
2023/06/13 05:33:10;;;;;;;7.28;4.20;;;17.90;72.50;;;;;;5068741;28;20054;-67
2023/06/13 05:35:36;;;;;;;6.07;3.92;;;18.00;72.60;;;;;;5068833;28;20140;-68
2023/06/13 05:38:02;;;;;;;6.90;4.30;;;18.20;72.50;;;;;;5070008;28;20611;-67
2023/06/13 05:40:27;;;;;;;8.35;4.30;;;18.30;72.30;;;;;;5070123;28;20391;-66
2023/06/13 05:42:53;;;;;;;8.13;4.38;;;18.40;72.10;;;;;;5063234;28;20036;-68
2023/06/13 05:45:20;;;;;;;5.63;4.03;;;18.50;71.40;;;;;;5067879;28;20064;-66
2023/06/13 05:47:46;;;;;;;7.47;4.28;;;18.50;71.10;;;;;;5068166;28;20476;-66
2023/06/13 05:50:12;;;;;;;6.75;4.20;;;18.70;71.00;;;;;;5068000;28;20032;-67
2023/06/13 05:52:38;;;;;;;5.72;4.13;;;18.80;70.90;;;;;;5068618;28;20036;-67
2023/06/13 05:55:05;;;;;;;6.20;3.83;;;18.90;70.60;;;;;;5070761;28;20040;-66
2023/06/13 05:57:41;;;;;;;9.90;4.18;;;18.90;70.10;;;;;;5071945;28;20041;-68
2023/06/13 06:00:13;;;;;;;6.25;3.70;;;19.00;69.60;;;;;;5071304;28;20073;-64
2023/06/13 06:02:44;;;;;;;9.43;3.85;;;19.20;70.10;;;;;;5071637;28;20039;-67
2023/06/13 06:05:11;;;;;;;8.10;4.00;;;19.30;69.70;;;;;;5071887;28;20499;-64
2023/06/13 06:07:38;;;;;;;5.47;3.90;;;19.40;69.60;;;;;;5071495;28;20040;-66
2023/06/13 06:10:05;;;;;;;6.03;3.67;;;19.50;69.20;;;;;;5072423;28;20111;-65
2023/06/13 06:12:31;;;;;;;9.02;3.88;;;19.70;69.30;;;;;;5071020;28;20044;-65
2023/06/13 06:14:57;;;;;;;5.45;3.80;;;19.80;69.10;;;;;;5070955;28;20037;-67
2023/06/13 06:17:23;;;;;;;9.45;4.85;;;19.90;68.90;;;;;;5070992;28;20491;-65
2023/06/13 06:19:48;;;;;;;8.05;4.07;;;20.00;68.70;;;;;;5070996;28;20036;-66
2023/06/13 06:22:14;;;;;;;7.47;3.90;;;20.20;68.90;;;;;;5070970;28;20453;-65
2023/06/13 06:24:42;;;;;;;10.50;4.30;;;20.30;68.60;;;;;;5072521;28;20137;-67
2023/06/13 06:27:07;;;;;;;6.53;3.90;;;20.40;68.00;;;;;;5054821;28;20455;-65
2023/06/13 06:29:33;;;;;;;6.20;3.88;;;20.50;68.60;;;;;;5070896;28;20051;-68
2023/06/13 06:31:58;;;;;;;4.72;3.83;;;20.70;68.00;;;;;;5072569;28;20044;-65
2023/06/13 06:34:24;;;;;;;6.40;3.88;;;20.80;67.60;;;;;;5072331;28;20567;-66
2023/06/13 06:36:50;;;;;;;8.90;4.18;;;20.90;67.40;;;;;;5070620;28;20133;-66
2023/06/13 06:39:16;;;;;;;6.50;3.70;;;20.90;66.80;;;;;;5071062;28;20068;-66
2023/06/13 06:41:42;;;;;;;5.90;3.90;;;21.00;66.60;;;;;;5072492;28;20024;-66
2023/06/13 06:44:08;;;;;;;5.50;3.75;;;21.00;66.10;;;;;;5070661;28;20052;-66
2023/06/13 06:46:33;;;;;;;6.50;3.40;;;21.10;66.00;;;;;;5070883;28;20371;-65
2023/06/13 06:48:59;;;;;;;8.38;3.75;;;21.10;65.60;;;;;;5071209;28;20051;-65
2023/06/13 06:51:25;;;;;;;6.60;3.50;;;21.20;65.60;;;;;;5071214;28;20047;-66
2023/06/13 06:53:51;;;;;;;4.15;3.40;;;21.20;65.10;;;;;;5070554;28;20106;-67
2023/06/13 06:56:17;;;;;;;6.18;3.67;;;21.30;65.30;;;;;;5070529;28;20117;-66
2023/06/13 06:58:43;;;;;;;6.50;3.53;;;21.30;65.10;;;;;;5070684;28;20059;-65
2023/06/13 07:01:09;;;;;;;6.18;3.75;;;21.40;65.00;;;;;;5053487;28;20131;-67
2023/06/13 07:03:35;;;;;;;5.05;3.50;;;21.40;64.60;;;;;;5070518;28;20195;-65
2023/06/13 07:06:02;;;;;;;6.43;3.47;;;21.60;64.80;;;;;;5070012;28;20173;-66
2023/06/13 07:08:28;;;;;;;5.28;3.90;;;21.70;64.40;;;;;;5070621;28;20040;-65
2023/06/13 07:10:54;;;;;;;6.13;3.83;;;21.80;64.00;;;;;;5070093;28;20044;-66
2023/06/13 07:13:19;;;;;;;7.45;3.20;;;21.90;64.10;;;;;;5070433;28;20040;-66
2023/06/13 07:15:45;;;;;;;10.10;3.78;;;22.00;64.10;;;;;;5071391;28;20068;-66
2023/06/13 07:18:11;;;;;;;6.35;3.58;;;22.10;64.50;;;;;;5070115;28;20047;-66
2023/06/13 07:20:36;;;;;;;5.07;3.45;;;22.20;63.70;;;;;;5071332;28;20090;-67
2023/06/13 07:23:02;;;;;;;4.82;3.80;;;22.20;63.10;;;;;;5069773;28;20050;-66
2023/06/13 07:25:28;;;;;;;5.03;3.45;;;22.20;63.00;;;;;;5071194;28;20036;-65
2023/06/13 07:27:54;;;;;;;5.20;3.60;;;22.30;63.50;;;;;;5069972;28;20054;-67
2023/06/13 07:30:20;;;;;;;5.85;3.50;;;22.30;63.40;;;;;;5068214;28;20496;-67
2023/06/13 07:32:46;;;;;;;5.05;3.80;;;22.40;63.90;;;;;;5070501;28;20040;-65
2023/06/13 07:35:14;;;;;;;9.13;3.67;;;22.50;63.80;;;;;;5070562;28;20408;-66
2023/06/13 07:37:40;;;;;;;8.63;4.10;;;22.70;63.60;;;;;;5070307;28;20098;-65
2023/06/13 07:40:08;;;;;;;9.43;3.85;;;22.80;63.60;;;;;;5070310;28;20112;-65
2023/06/13 07:42:34;;;;;;;5.95;4.03;;;22.90;63.20;;;;;;5070340;28;20037;-67
2023/06/13 07:45:00;;;;;;;6.15;3.90;;;22.90;62.90;;;;;;5070234;28;20053;-67
2023/06/13 07:47:25;;;;;;;5.82;4.07;;;23.00;62.70;;;;;;5069457;28;20043;-66
2023/06/13 07:49:51;;;;;;;5.80;4.00;;;23.00;62.30;;;;;;5069406;28;20384;-65
2023/06/13 07:52:17;;;;;;;8.32;3.92;;;23.10;62.40;;;;;;5069465;28;20430;-68
2023/06/13 07:54:43;;;;;;;7.72;4.35;;;23.30;62.30;;;;;;5069440;28;20044;-65
2023/06/13 07:57:09;;;;;;;8.02;3.90;;;23.40;61.80;;;;;;5070738;28;20047;-67
2023/06/13 07:59:35;;;;;;;6.80;4.03;;;23.40;61.90;;;;;;5070354;28;20047;-64
2023/06/13 08:02:01;;;;;;;8.23;4.07;;;23.50;61.80;;;;;;5070044;28;20045;-66
2023/06/13 08:04:26;;;;;;;7.95;3.88;;;23.70;61.90;;;;;;5068874;28;20476;-65
2023/06/13 08:06:52;;;;;;;8.43;3.97;;;23.80;61.50;;;;;;5069081;28;20056;-65
2023/06/13 08:09:18;;;;;;;5.22;3.35;;;24.00;61.50;;;;;;5066507;28;20048;-65
2023/06/13 08:11:44;;;;;;;5.65;3.83;;;24.10;61.30;;;;;;5067249;28;20041;-65
2023/06/13 08:14:13;;;;;;;5.70;3.30;;;24.30;61.30;;;;;;5069602;28;20041;-65
2023/06/13 08:16:38;;;;;;;5.82;3.97;;;24.30;60.20;;;;;;5068505;28;20113;-67
2023/06/13 08:19:04;;;;;;;5.70;3.78;;;24.40;59.50;;;;;;5068357;28;20552;-66
2023/06/13 08:21:33;;;;;;;5.70;3.55;;;24.40;59.30;;;;;;5069486;28;20174;-67
2023/06/13 08:23:59;;;;;;;6.03;4.00;;;24.60;59.30;;;;;;5053009;28;20487;-67
2023/06/13 08:26:32;;;;;;;5.05;3.70;;;24.70;59.00;;;;;;5068726;28;20051;-68
2023/06/13 08:29:02;;;;;;;5.00;3.42;;;24.80;59.10;;;;;;5068982;28;20479;-66
2023/06/13 08:31:31;;;;;;;5.10;3.63;;;25.00;59.00;;;;;;5068654;28;20129;-65
2023/06/13 08:33:58;;;;;;;4.68;3.80;;;25.10;58.30;;;;;;5068663;28;20044;-66
2023/06/13 08:36:25;;;;;;;5.53;3.90;;;25.30;57.70;;;;;;5068247;28;20040;-66
2023/06/13 08:38:52;;;;;;;6.88;3.75;;;25.30;57.20;;;;;;5069158;28;20511;-66
2023/06/13 08:41:18;;;;;;;7.28;3.67;;;25.40;57.00;;;;;;5070118;28;20044;-66
2023/06/13 08:43:45;;;;;;;8.85;3.65;;;25.50;56.70;;;;;;5051828;28;20044;-65
2023/06/13 08:46:11;;;;;;;5.00;3.60;;;25.50;56.20;;;;;;5069537;28;20491;-66
2023/06/13 08:48:37;;;;;;;7.90;3.40;;;25.60;56.60;;;;;;5068558;28;20067;-66
2023/06/13 08:51:04;;;;;;;5.00;3.70;;;25.80;56.60;;;;;;5068892;28;20072;-67
2023/06/13 08:53:32;;;;;;;6.15;3.70;;;25.80;55.80;;;;;;5069858;28;20068;-66
2023/06/13 08:56:04;;;;;;;7.18;3.55;;;25.90;55.60;;;;;;5068624;28;20044;-67
2023/06/13 08:58:35;;;;;;;5.63;3.42;;;26.10;55.60;;;;;;5069765;28;20115;-65
2023/06/13 09:01:02;;;;;;;4.63;3.38;;;26.10;55.00;;;;;;5052468;28;20056;-66
2023/06/13 09:03:29;;;;;;;4.28;3.15;;;26.20;55.60;;;;;;5069941;28;20049;-66
2023/06/13 09:05:56;;;;;;;9.73;3.58;;;26.30;56.00;;;;;;5051532;28;20062;-67
2023/06/13 09:08:24;;;;;;;5.32;3.70;;;26.50;55.60;;;;;;5069076;28;20055;-64
2023/06/13 09:10:50;;;;;;;5.18;3.08;;;26.60;55.20;;;;;;5070007;28;20421;-66
2023/06/13 09:13:17;;;;;;;4.07;3.00;;;26.90;55.40;;;;;;5069391;28;20050;-67
2023/06/13 09:15:43;;;;;;;6.03;3.15;;;27.00;54.80;;;;;;5068049;28;20168;-66
2023/06/13 09:18:10;;;;;;;5.15;3.28;;;27.10;54.60;;;;;;5068303;28;20040;-66
2023/06/13 09:20:36;;;;;;;6.97;3.15;;;27.20;53.80;;;;;;5068115;28;20028;-66
2023/06/13 09:23:02;;;;;;;5.28;2.92;;;27.20;53.40;;;;;;5068234;28;20098;-64
2023/06/13 09:25:31;;;;;;;6.95;3.22;;;27.30;53.80;;;;;;5068355;28;20111;-67
2023/06/13 09:27:57;;;;;;;4.40;3.03;;;27.50;54.00;;;;;;5049411;28;20127;-67
2023/06/13 09:30:22;;;;;;;5.40;3.20;;;27.60;53.10;;;;;;5071307;28;20128;-68
2023/06/13 09:32:53;;;;;;;6.18;3.47;;;27.70;53.70;;;;;;5072572;28;20124;-67
2023/06/13 09:35:19;;;;;;;4.70;3.10;;;27.90;52.70;;;;;;5073198;28;20032;-65
2023/06/13 09:37:45;;;;;;;8.18;3.20;;;28.10;52.60;;;;;;5072683;28;20036;-67
2023/06/13 09:40:12;;;;;;;6.90;3.47;;;28.30;52.00;;;;;;5072249;28;20383;-65
2023/06/13 09:42:38;;;;;;;5.07;2.90;;;28.30;52.10;;;;;;5071730;28;20133;-65
2023/06/13 09:45:08;;;;;;;3.33;2.85;;;28.50;53.20;;;;;;5071824;28;20124;-66
2023/06/13 09:47:35;;;;;;;3.50;2.90;;;28.50;51.20;;;;;;5072261;28;20041;-67
2023/06/13 09:50:01;;;;;;;6.60;3.17;;;28.50;51.10;;;;;;5072388;28;20040;-67
2023/06/13 09:52:30;;;;;;;4.47;3.20;;;28.60;51.40;;;;;;5072237;28;20403;-66
2023/06/13 09:54:56;;;;;;;6.78;3.20;;;28.70;51.50;;;;;;5055179;28;20052;-66
2023/06/13 09:57:22;;;;;;;4.32;3.00;;;28.80;50.20;;;;;;5073165;28;20043;-67
2023/06/13 09:59:50;;;;;;;22.92;3.13;;;28.80;49.40;;;;;;5069636;28;20028;-65
2023/06/13 10:02:17;;;;;;;7.50;2.85;;;28.90;49.50;;;;;;5071613;28;20041;-63
2023/06/13 10:04:43;;;;;;;3.70;2.72;;;29.00;49.30;;;;;;5055126;28;20497;-64
2023/06/13 10:07:11;;;;;;;6.05;2.92;;;29.20;49.60;;;;;;5071937;28;20553;-66
2023/06/13 10:09:38;;;;;;;7.03;3.08;;;29.20;48.90;;;;;;5071946;28;20048;-64
2023/06/13 10:12:08;;;;;;;5.13;3.30;;;29.30;48.20;;;;;;5071154;28;20036;-66
2023/06/13 10:14:39;;;;;;;6.45;3.08;;;29.20;48.10;;;;;;5071468;28;20131;-65
2023/06/13 10:17:08;;;;;;;5.53;2.93;;;29.20;47.80;;;;;;5054616;28;20178;-66
2023/06/13 10:19:38;;;;;;;4.57;2.80;;;29.40;48.80;;;;;;5071248;28;20095;-66
2023/06/13 10:22:05;;;;;;;5.68;3.28;;;29.70;48.20;;;;;;5071032;28;20044;-65
2023/06/13 10:24:33;;;;;;;3.17;2.70;;;29.70;48.80;;;;;;5071265;28;20116;-65
2023/06/13 10:27:01;;;;;;;5.97;3.10;;;29.90;47.90;;;;;;5071292;28;20479;-64
2023/06/13 10:29:32;;;;;;;5.43;3.28;;;30.10;47.10;;;;;;5071049;28;20044;-65
2023/06/13 10:32:33;;;;;;;4.25;3.78;;;30.00;46.90;;;;;;5054181;28;20054;-64
2023/06/13 10:35:36;;;;;;;5.82;2.90;;;30.10;46.50;;;;;;5066681;28;20051;-65
2023/06/13 10:38:45;;;;;;;4.50;2.80;;;30.00;44.60;;;;;;5069082;28;20052;-66
2023/06/13 10:41:23;;;;;;;5.93;2.80;;;30.00;46.30;;;;;;5069762;28;20407;-65
2023/06/13 10:43:55;;;;;;;4.53;2.80;;;30.20;46.50;;;;;;5071368;28;20119;-66
2023/06/13 10:46:21;;;;;;;4.03;2.92;;;30.20;45.40;;;;;;5071856;28;20032;-65
2023/06/13 10:48:50;;;;;;;5.05;2.78;;;30.00;44.90;;;;;;5072988;28;20063;-64
2023/06/13 10:51:20;;;;;;;4.35;2.90;;;30.00;45.30;;;;;;5070488;28;20090;-65
2023/06/13 10:53:51;;;;;;;4.53;2.78;;;30.10;46.40;;;;;;5070865;28;20078;-64
2023/06/13 10:56:17;;;;;;;12.05;3.20;;;30.20;45.90;;;;;;5070337;28;20079;-66
2023/06/13 10:58:42;;;;;;;5.43;2.90;;;30.40;45.40;;;;;;5070530;28;20064;-66
2023/06/13 11:01:28;;;;;;;5.15;3.03;;;30.30;45.20;;;;;;5070682;28;20049;-66
2023/06/13 11:04:07;;;;;;;4.53;3.10;;;30.30;45.30;;;;;;5070436;28;20052;-65
2023/06/13 11:06:33;;;;;;;4.55;3.13;;;30.40;43.90;;;;;;5070371;28;20048;-65
2023/06/13 11:09:14;;;;;;;3.47;3.00;;;30.30;44.70;;;;;;5070620;28;20124;-64
2023/06/13 11:11:54;;;;;;;3.42;2.75;;;30.40;44.70;;;;;;5070631;28;20124;-66
2023/06/13 11:14:41;;;;;;;6.35;3.50;;;30.40;44.60;;;;;;5070191;28;20043;-65
2023/06/13 11:17:07;;;;;;;6.10;3.33;;;30.40;44.20;;;;;;5070622;28;20044;-65
2023/06/13 11:19:34;;;;;;;5.20;3.00;;;30.40;45.20;;;;;;5070521;28;20063;-64
2023/06/13 11:22:00;;;;;;;6.75;3.38;;;30.60;45.00;;;;;;5070338;28;20568;-64
2023/06/13 11:24:33;;;;;;;5.32;3.53;;;30.40;43.00;;;;;;5070207;28;20119;-64
2023/06/13 11:27:00;;;;;;;5.45;3.35;;;30.20;43.40;;;;;;5071316;28;20048;-65
2023/06/13 11:29:30;;;;;;;6.53;3.15;;;30.10;42.80;;;;;;5069925;28;20040;-64
2023/06/13 11:31:56;;;;;;;4.90;3.05;;;30.00;42.90;;;;;;5070398;28;20048;-66
2023/06/13 11:34:31;;;;;;;5.97;3.17;;;29.90;42.50;;;;;;5070214;28;20515;-65
2023/06/13 11:37:03;;;;;;;7.57;3.50;;;29.70;41.70;;;;;;5069910;28;20566;-65
2023/06/13 11:39:41;;;;;;;4.53;3.13;;;29.70;42.50;;;;;;5070450;28;20487;-65
2023/06/13 11:42:08;;;;;;;4.32;3.17;;;29.60;42.50;;;;;;5052770;28;20063;-66
2023/06/13 11:44:37;;;;;;;4.80;3.40;;;29.60;43.30;;;;;;5070132;28;20072;-64
2023/06/13 11:47:04;;;;;;;4.18;2.92;;;29.60;42.60;;;;;;5070543;28;20045;-65
2023/06/13 11:49:29;;;;;;;5.95;3.10;;;29.50;42.30;;;;;;5053342;28;20151;-64
2023/06/13 11:51:55;;;;;;;4.07;3.30;;;29.40;42.50;;;;;;5070283;28;20048;-66
2023/06/13 11:54:30;;;;;;;5.90;3.60;;;29.40;42.70;;;;;;5070248;28;20049;-64
2023/06/13 11:56:56;;;;;;;5.57;3.33;;;29.40;43.40;;;;;;5069469;28;20051;-65
2023/06/13 11:59:23;;;;;;;3.40;3.03;;;29.40;42.50;;;;;;5069200;28;20123;-65
2023/06/13 12:01:55;;;;;;;4.63;3.60;;;29.30;42.20;;;;;;5069671;28;20829;-64
2023/06/13 12:04:26;;;;;;;5.80;3.30;;;29.20;42.10;;;;;;5069901;28;20070;-63
2023/06/13 12:06:55;;;;;;;5.25;3.10;;;29.10;42.50;;;;;;5070193;28;20446;-67
2023/06/13 12:09:21;;;;;;;5.90;3.05;;;29.00;42.60;;;;;;5069389;28;20063;-64
2023/06/13 12:11:48;;;;;;;7.00;3.00;;;28.90;42.70;;;;;;5069588;28;20036;-67
2023/06/13 12:14:18;;;;;;;5.70;3.42;;;28.90;42.70;;;;;;5069890;28;20047;-65
2023/06/13 12:16:45;;;;;;;6.53;3.30;;;28.80;43.20;;;;;;5071018;28;20044;-64
2023/06/13 12:19:11;;;;;;;5.63;3.60;;;28.80;43.90;;;;;;5070004;28;20098;-65
2023/06/13 12:21:38;;;;;;;4.30;3.13;;;28.60;42.60;;;;;;5069744;28;20044;-64
2023/06/13 12:24:08;;;;;;;4.80;3.38;;;28.50;43.60;;;;;;5064520;28;20116;-65
2023/06/13 12:26:35;;;;;;;5.53;3.08;;;28.50;43.90;;;;;;5068924;28;20051;-65
2023/06/13 12:29:11;;;;;;;5.20;3.65;;;28.50;44.20;;;;;;5069759;28;20438;-65
2023/06/13 12:31:47;;;;;;;6.32;2.95;;;28.30;44.50;;;;;;5069562;28;20054;-66
2023/06/13 12:34:31;;;;;;;3.47;3.00;;;28.30;44.50;;;;;;5069514;28;20044;-66
2023/06/13 12:37:08;;;;;;;7.18;3.30;;;28.20;44.90;;;;;;5069010;28;20058;-65
2023/06/13 12:39:34;;;;;;;3.53;3.22;;;28.30;44.10;;;;;;5068602;28;20124;-63
2023/06/13 12:42:05;;;;;;;5.28;3.20;;;28.20;43.60;;;;;;5069013;28;20467;-65
2023/06/13 12:44:33;;;;;;;4.10;2.97;;;28.20;43.80;;;;;;5068508;28;20120;-64
2023/06/13 12:47:02;;;;;;;5.20;3.20;;;28.30;44.20;;;;;;5068474;28;20052;-65
2023/06/13 12:49:37;;;;;;;7.05;3.20;;;28.30;44.30;;;;;;5068414;28;20098;-66